Hesperides — EANN — position and weather

sailwx.info

Track history (hours):
 
Tides and Currents Weather Stations Pressure Air Temp Water Temp Dewpoint Dewpoint Depression Visibility Wind Speed Wind Dir Waves Ship Positions

Hesperides

Last reported at 2017-Apr-23 11:43 UTC. Time now 2017-Apr-26 15:53 UTC.
Position N 28°10' W 013°60'.

Length 122 m; draft 6.2 m.

Type: Tanker. MMSI: 224462000.

Date/timePositionNaut miles runAvg speedWind from/ knotsBaromVisibWave heightAir tempDewpointWater temp
2017-Apr-23 11:43N 28°10' W 013°60'2 8.9
2017-Apr-23 11:30N 28°09' W 014°02'4 8.8
2017-Apr-23 11:00N 28°07' W 014°06'5 8.8
2017-Apr-23 10:29N 28°05' W 014°11'7 8.1
2017-Apr-23 09:39N 28°01' W 014°17'1 7.9
2017-Apr-23 09:30N 28°01' W 014°19'4 8.2
2017-Apr-23 09:00N 28°01' W 014°23'4 8.7
2017-Apr-23 08:30N 28°01' W 014°28'4 8.4
2017-Apr-23 08:00N 28°01' W 014°33'4 8.2
2017-Apr-23 07:30N 28°01' W 014°37'4 8.5
2017-Apr-23 07:00N 28°01' W 014°42'4 8.6
2017-Apr-23 06:30N 28°02' W 014°47'4 8.5
2017-Apr-23 06:00N 28°02' W 014°52'4 8.3
2017-Apr-23 05:30N 28°01' W 014°57'4 7.1
2017-Apr-23 05:01N 28°03' W 015°00'4 8.6
2017-Apr-23 04:31N 28°03' W 015°05'4 8.8
2017-Apr-23 04:01N 28°01' W 015°10'4 8.8
2017-Apr-23 03:31N 28°00' W 015°14'4 8.8
2017-Apr-23 03:01N 27°59' W 015°19'3 6.1
2017-Apr-23 02:31N 27°59' W 015°23'0 0.0
2017-Apr-23 02:01N 27°59' W 015°23'0 0.0
2017-Apr-23 01:30N 27°59' W 015°23'0 0.0
2017-Apr-23 01:01N 27°59' W 015°23'0 0.0
2017-Apr-23 00:31N 27°59' W 015°23'0 0.0
2017-Apr-22 05:49N 27°59' W 015°23'0 0.6
2017-Apr-22 05:30N 27°58' W 015°23'1 2.4
2017-Apr-22 05:01N 27°58' W 015°21'3 6.5
2017-Apr-22 04:31N 28°01' W 015°20'4 8.6
2017-Apr-22 04:00N 28°06' W 015°21'4 8.8
2017-Apr-22 03:31N 28°08' W 015°25'1 2.0
2017-Apr-22 03:01N 28°09' W 015°25'0 0.0
2017-Apr-21 23:49N 28°09' W 015°25'0 0.0
2017-Apr-21 16:42N 28°09' W 015°25'0 0.4
2017-Apr-21 16:30N 28°08' W 015°25'2 3.7
2017-Apr-21 16:00N 28°07' W 015°24'3 6.5
2017-Apr-21 15:30N 28°05' W 015°21'4 8.8
2017-Apr-21 15:00N 28°02' W 015°17'4 7.9
2017-Apr-21 14:30N 27°58' W 015°16'4 4.3
2017-Apr-21 13:30N 28°03' W 015°17'4 7.8
2017-Apr-21 13:00N 27°59' W 015°16'510.3
2017-Apr-21 12:30N 28°04' W 015°16'3 6.5
2017-Apr-21 12:00N 28°06' W 015°19'2 4.7
2017-Apr-21 11:30N 28°04' W 015°17'2 4.9
2017-Apr-21 11:00N 28°06' W 015°19'5 9.4
2017-Apr-21 10:30N 28°06' W 015°13'5 9.6
2017-Apr-21 10:00N 28°06' W 015°08'5 9.6
2017-Apr-21 09:30N 28°05' W 015°03'5 9.6
2017-Apr-21 09:00N 28°05' W 014°57'5 9.4
2017-Apr-21 08:30N 28°04' W 014°52'5 9.7
2017-Apr-21 08:00N 28°03' W 014°46'5 9.4
2017-Apr-21 07:30N 28°02' W 014°41'5 9.6
2017-Apr-21 07:00N 28°01' W 014°36'5 9.8
2017-Apr-21 06:30N 28°00' W 014°30'19 9.6
2017-Apr-21 04:34N 28°03' W 014°10'110.5
2017-Apr-21 04:30N 28°04' W 014°09'510.4
2017-Apr-21 03:59N 28°06' W 014°04'610.7
2017-Apr-21 03:28N 28°09' W 013°58'1710.3
2017-Apr-21 01:49N 28°24' W 013°48'410.1
2017-Apr-21 01:28N 28°27' W 013°49'3 0.1
2017-Apr-18 23:05N 28°30' W 013°51'0 0.0
2017-Apr-18 22:56N 28°30' W 013°51'0 0.0
2017-Apr-18 22:19N 28°30' W 013°51'1 0.6
2017-Apr-18 20:46N 28°29' W 013°50'2 8.5
2017-Apr-18 20:30N 28°27' W 013°49'5 9.3
2017-Apr-18 20:00N 28°23' W 013°49'8 9.2
2017-Apr-18 19:07N 28°15' W 013°52'1 9.0
2017-Apr-18 18:58N 28°14' W 013°52'4 8.4
2017-Apr-18 18:30N 28°11' W 013°56'4 8.9
2017-Apr-18 18:00N 28°09' W 014°00'5 9.4
2017-Apr-18 17:27N 28°07' W 014°05'7 9.3
2017-Apr-18 16:45N 28°04' W 014°12'2 9.4
2017-Apr-18 16:29N 28°03' W 014°15'5 9.5
2017-Apr-18 16:00N 28°01' W 014°19'5 9.3
2017-Apr-18 15:30N 28°01' W 014°24'5 9.5
2017-Apr-18 15:00N 28°01' W 014°30'5 9.2
2017-Apr-18 14:30N 28°02' W 014°35'9 9.1
2017-Apr-18 13:30N 28°04' W 014°45'4 8.8
2017-Apr-18 13:00N 28°04' W 014°50'5 9.0
2017-Apr-18 12:30N 28°05' W 014°55'4 8.0
2017-Apr-18 12:00N 28°07' W 014°59'4 8.4
2017-Apr-18 11:30N 28°09' W 015°03'4 8.8
2017-Apr-18 11:00N 28°10' W 015°08'4 9.0
2017-Apr-18 10:30N 28°11' W 015°13'5 9.1
2017-Apr-18 10:00N 28°12' W 015°18'5 9.3
2017-Apr-18 09:30N 28°14' W 015°23'5 9.5
2017-Apr-18 09:00N 28°15' W 015°28'5 9.3
2017-Apr-18 08:30N 28°16' W 015°34'5 9.2
2017-Apr-18 08:00N 28°17' W 015°39'4 8.8
2017-Apr-18 07:30N 28°18' W 015°44'4 8.6
2017-Apr-18 07:00N 28°19' W 015°48'4 8.7
2017-Apr-18 06:30N 28°20' W 015°53'4 8.6
2017-Apr-18 06:00N 28°21' W 015°58'5 8.6
2017-Apr-18 05:24N 28°23' W 016°03'3 8.7
2017-Apr-18 05:00N 28°23' W 016°07'5 8.8
2017-Apr-18 04:28N 28°26' W 016°12'4 7.7
2017-Apr-18 04:00N 28°29' W 016°14'0 0.8
2017-Apr-18 03:30N 28°29' W 016°13'0 0.0
2017-Apr-17 11:00N 28°29' W 016°13'0 0.0
2017-Apr-17 10:30N 28°29' W 016°13'0 0.0
2017-Apr-17 10:00N 28°29' W 016°13'0 0.0
2017-Apr-17 09:31N 28°29' W 016°13'0 0.0
2017-Apr-17 09:01N 28°29' W 016°13'0 0.0
2017-Apr-17 08:30N 28°29' W 016°13'0 0.0
2017-Apr-17 08:01N 28°29' W 016°13'0 0.7
2017-Apr-17 07:30N 28°29' W 016°14'2 5.0
2017-Apr-17 07:01N 28°28' W 016°11'5 9.4
2017-Apr-17 06:30N 28°28' W 016°06'5 9.3
2017-Apr-17 06:00N 28°31' W 016°01'5 9.7
2017-Apr-17 05:31N 28°33' W 015°57'5 9.7
2017-Apr-17 05:01N 28°36' W 015°52'5 9.5
2017-Apr-17 04:31N 28°38' W 015°47'5 9.4
2017-Apr-17 04:00N 28°39' W 015°42'5 9.1
2017-Apr-17 03:30N 28°39' W 015°37'5 9.2
2017-Apr-17 03:01N 28°40' W 015°31'5 9.4
2017-Apr-17 02:30N 28°40' W 015°26'5 9.3
2017-Apr-17 02:00N 28°41' W 015°21'5 9.1
2017-Apr-17 01:30N 28°41' W 015°16'5 9.4
2017-Apr-17 01:00N 28°42' W 015°10'5 9.3
2017-Apr-17 00:30N 28°43' W 015°05'5 9.3
2017-Apr-17 00:01N 28°44' W 014°60'5 9.2
2017-Apr-16 23:30N 28°44' W 014°55'5 9.0
2017-Apr-16 23:00N 28°45' W 014°50'5 9.0
2017-Apr-16 22:30N 28°46' W 014°45'4 8.0
2017-Apr-16 22:00N 28°44' W 014°41'5 9.1
2017-Apr-16 21:30N 28°44' W 014°35'5 9.2
2017-Apr-16 21:00N 28°45' W 014°30'5 9.2
2017-Apr-16 20:30N 28°46' W 014°25'5 9.2
2017-Apr-16 20:00N 28°46' W 014°20'4 9.2
2017-Apr-16 19:31N 28°47' W 014°15'510.0
2017-Apr-16 19:01N 28°48' W 014°09'510.1
2017-Apr-16 18:28N 28°48' W 014°03'510.0
2017-Apr-16 18:00N 28°48' W 013°58'510.7
2017-Apr-16 17:30N 28°48' W 013°51'610.7
2017-Apr-16 16:59N 28°49' W 013°45'910.4
2017-Apr-16 16:09N 28°51' W 013°36'1 9.9
2017-Apr-16 16:01N 28°52' W 013°34'5 9.9
2017-Apr-16 15:31N 28°57' W 013°32'1 2.4
2017-Apr-16 15:01N 28°58' W 013°32'0 0.0
2017-Apr-16 14:31N 28°58' W 013°32'0 0.0
2017-Apr-15 13:28N 28°58' W 013°32'2 3.2
2017-Apr-15 13:00N 28°56' W 013°32'4 8.2
2017-Apr-15 12:30N 28°54' W 013°36'4 8.9
2017-Apr-15 12:00N 28°52' W 013°40'4 8.9
2017-Apr-15 11:30N 28°50' W 013°45'4 8.8
2017-Apr-15 11:00N 28°48' W 013°50'4 8.7
2017-Apr-15 10:30N 28°48' W 013°54'4 8.5
2017-Apr-15 10:00N 28°47' W 013°59'4 8.3
2017-Apr-15 09:30N 28°47' W 014°04'4 8.6
2017-Apr-15 09:00N 28°47' W 014°09'4 8.7
2017-Apr-15 08:30N 28°46' W 014°14'4 8.6
2017-Apr-15 08:00N 28°46' W 014°19'4 8.4
2017-Apr-15 07:30N 28°45' W 014°24'4 8.3
2017-Apr-15 07:00N 28°45' W 014°28'4 8.7
2017-Apr-15 06:30N 28°45' W 014°33'4 8.8
2017-Apr-15 06:00N 28°44' W 014°38'4 8.8
2017-Apr-15 05:30N 28°43' W 014°43'4 8.7
2017-Apr-15 05:00N 28°43' W 014°48'4 8.9
2017-Apr-15 04:30N 28°43' W 014°53'5 9.2
2017-Apr-15 04:00N 28°42' W 014°58'5 9.2
2017-Apr-15 03:30N 28°42' W 015°03'5 9.1
2017-Apr-15 03:00N 28°42' W 015°09'5 9.0
2017-Apr-15 02:30N 28°42' W 015°14'5 9.1
2017-Apr-15 02:00N 28°41' W 015°19'5 9.1
2017-Apr-15 01:30N 28°41' W 015°24'5 9.1
2017-Apr-15 01:00N 28°41' W 015°29'4 9.0
2017-Apr-15 00:30N 28°40' W 015°34'5 9.1
2017-Apr-14 23:59N 28°40' W 015°40'4 9.2
2017-Apr-14 23:30N 28°39' W 015°45'5 9.0
2017-Apr-14 23:00N 28°38' W 015°50'4 9.0
2017-Apr-14 22:30N 28°36' W 015°54'5 9.1
2017-Apr-14 22:00N 28°34' W 015°59'5 9.1
2017-Apr-14 21:30N 28°32' W 016°04'5 9.1
2017-Apr-14 20:59N 28°29' W 016°08'4 8.5
2017-Apr-14 20:29N 28°28' W 016°13'1 0.1
2017-Apr-14 00:58N 28°29' W 016°13'  
Track history (hours):
 
Tides and Currents Weather Stations Pressure Air Temp Water Temp Dewpoint Dewpoint Depression Visibility Wind Speed Wind Dir Waves Ship Positions

Hesperides

Last reported at 2017-Apr-23 11:43 UTC. Time now 2017-Apr-26 15:53 UTC.
Position N 28°10' W 013°60'.

Length 122 m; draft 6.2 m.

Type: Tanker. MMSI: 224462000.

Date/timePositionNaut miles runAvg speedWind from/ knotsBaromVisibWave heightAir tempDewpointWater temp
2017-Apr-23 11:43N 28°10' W 013°60'2 8.9
2017-Apr-23 11:30N 28°09' W 014°02'4 8.8
2017-Apr-23 11:00N 28°07' W 014°06'5 8.8
2017-Apr-23 10:29N 28°05' W 014°11'7 8.1
2017-Apr-23 09:39N 28°01' W 014°17'1 7.9
2017-Apr-23 09:30N 28°01' W 014°19'4 8.2
2017-Apr-23 09:00N 28°01' W 014°23'4 8.7
2017-Apr-23 08:30N 28°01' W 014°28'4 8.4
2017-Apr-23 08:00N 28°01' W 014°33'4 8.2
2017-Apr-23 07:30N 28°01' W 014°37'4 8.5
2017-Apr-23 07:00N 28°01' W 014°42'4 8.6
2017-Apr-23 06:30N 28°02' W 014°47'4 8.5
2017-Apr-23 06:00N 28°02' W 014°52'4 8.3
2017-Apr-23 05:30N 28°01' W 014°57'4 7.1
2017-Apr-23 05:01N 28°03' W 015°00'4 8.6
2017-Apr-23 04:31N 28°03' W 015°05'4 8.8
2017-Apr-23 04:01N 28°01' W 015°10'4 8.8
2017-Apr-23 03:31N 28°00' W 015°14'4 8.8
2017-Apr-23 03:01N 27°59' W 015°19'3 6.1
2017-Apr-23 02:31N 27°59' W 015°23'0 0.0
2017-Apr-23 02:01N 27°59' W 015°23'0 0.0
2017-Apr-23 01:30N 27°59' W 015°23'0 0.0
2017-Apr-23 01:01N 27°59' W 015°23'0 0.0
2017-Apr-23 00:31N 27°59' W 015°23'0 0.0
2017-Apr-22 05:49N 27°59' W 015°23'0 0.6
2017-Apr-22 05:30N 27°58' W 015°23'1 2.4
2017-Apr-22 05:01N 27°58' W 015°21'3 6.5
2017-Apr-22 04:31N 28°01' W 015°20'4 8.6
2017-Apr-22 04:00N 28°06' W 015°21'4 8.8
2017-Apr-22 03:31N 28°08' W 015°25'1 2.0
2017-Apr-22 03:01N 28°09' W 015°25'0 0.0
2017-Apr-21 23:49N 28°09' W 015°25'0 0.0
2017-Apr-21 16:42N 28°09' W 015°25'0 0.4
2017-Apr-21 16:30N 28°08' W 015°25'2 3.7
2017-Apr-21 16:00N 28°07' W 015°24'3 6.5
2017-Apr-21 15:30N 28°05' W 015°21'4 8.8
2017-Apr-21 15:00N 28°02' W 015°17'4 7.9
2017-Apr-21 14:30N 27°58' W 015°16'4 4.3
2017-Apr-21 13:30N 28°03' W 015°17'4 7.8
2017-Apr-21 13:00N 27°59' W 015°16'510.3
2017-Apr-21 12:30N 28°04' W 015°16'3 6.5
2017-Apr-21 12:00N 28°06' W 015°19'2 4.7
2017-Apr-21 11:30N 28°04' W 015°17'2 4.9
2017-Apr-21 11:00N 28°06' W 015°19'5 9.4
2017-Apr-21 10:30N 28°06' W 015°13'5 9.6
2017-Apr-21 10:00N 28°06' W 015°08'5 9.6
2017-Apr-21 09:30N 28°05' W 015°03'5 9.6
2017-Apr-21 09:00N 28°05' W 014°57'5 9.4
2017-Apr-21 08:30N 28°04' W 014°52'5 9.7
2017-Apr-21 08:00N 28°03' W 014°46'5 9.4
2017-Apr-21 07:30N 28°02' W 014°41'5 9.6
2017-Apr-21 07:00N 28°01' W 014°36'5 9.8
2017-Apr-21 06:30N 28°00' W 014°30'19 9.6
2017-Apr-21 04:34N 28°03' W 014°10'110.5
2017-Apr-21 04:30N 28°04' W 014°09'510.4
2017-Apr-21 03:59N 28°06' W 014°04'610.7
2017-Apr-21 03:28N 28°09' W 013°58'1710.3
2017-Apr-21 01:49N 28°24' W 013°48'410.1
2017-Apr-21 01:28N 28°27' W 013°49'3 0.1
2017-Apr-18 23:05N 28°30' W 013°51'0 0.0
2017-Apr-18 22:56N 28°30' W 013°51'0 0.0
2017-Apr-18 22:19N 28°30' W 013°51'1 0.6
2017-Apr-18 20:46N 28°29' W 013°50'2 8.5
2017-Apr-18 20:30N 28°27' W 013°49'5 9.3
2017-Apr-18 20:00N 28°23' W 013°49'8 9.2
2017-Apr-18 19:07N 28°15' W 013°52'1 9.0
2017-Apr-18 18:58N 28°14' W 013°52'4 8.4
2017-Apr-18 18:30N 28°11' W 013°56'4 8.9
2017-Apr-18 18:00N 28°09' W 014°00'5 9.4
2017-Apr-18 17:27N 28°07' W 014°05'7 9.3
2017-Apr-18 16:45N 28°04' W 014°12'2 9.4
2017-Apr-18 16:29N 28°03' W 014°15'5 9.5
2017-Apr-18 16:00N 28°01' W 014°19'5 9.3
2017-Apr-18 15:30N 28°01' W 014°24'5 9.5
2017-Apr-18 15:00N 28°01' W 014°30'5 9.2
2017-Apr-18 14:30N 28°02' W 014°35'9 9.1
2017-Apr-18 13:30N 28°04' W 014°45'4 8.8
2017-Apr-18 13:00N 28°04' W 014°50'5 9.0
2017-Apr-18 12:30N 28°05' W 014°55'4 8.0
2017-Apr-18 12:00N 28°07' W 014°59'4 8.4
2017-Apr-18 11:30N 28°09' W 015°03'4 8.8
2017-Apr-18 11:00N 28°10' W 015°08'4 9.0
2017-Apr-18 10:30N 28°11' W 015°13'5 9.1
2017-Apr-18 10:00N 28°12' W 015°18'5 9.3
2017-Apr-18 09:30N 28°14' W 015°23'5 9.5
2017-Apr-18 09:00N 28°15' W 015°28'5 9.3
2017-Apr-18 08:30N 28°16' W 015°34'5 9.2
2017-Apr-18 08:00N 28°17' W 015°39'4 8.8
2017-Apr-18 07:30N 28°18' W 015°44'4 8.6
2017-Apr-18 07:00N 28°19' W 015°48'4 8.7
2017-Apr-18 06:30N 28°20' W 015°53'4 8.6
2017-Apr-18 06:00N 28°21' W 015°58'5 8.6
2017-Apr-18 05:24N 28°23' W 016°03'3 8.7
2017-Apr-18 05:00N 28°23' W 016°07'5 8.8
2017-Apr-18 04:28N 28°26' W 016°12'4 7.7
2017-Apr-18 04:00N 28°29' W 016°14'0 0.8
2017-Apr-18 03:30N 28°29' W 016°13'0 0.0
2017-Apr-17 11:00N 28°29' W 016°13'0 0.0
2017-Apr-17 10:30N 28°29' W 016°13'0 0.0
2017-Apr-17 10:00N 28°29' W 016°13'0 0.0
2017-Apr-17 09:31N 28°29' W 016°13'0 0.0
2017-Apr-17 09:01N 28°29' W 016°13'0 0.0
2017-Apr-17 08:30N 28°29' W 016°13'0 0.0
2017-Apr-17 08:01N 28°29' W 016°13'0 0.7
2017-Apr-17 07:30N 28°29' W 016°14'2 5.0
2017-Apr-17 07:01N 28°28' W 016°11'5 9.4
2017-Apr-17 06:30N 28°28' W 016°06'5 9.3
2017-Apr-17 06:00N 28°31' W 016°01'5 9.7
2017-Apr-17 05:31N 28°33' W 015°57'5 9.7
2017-Apr-17 05:01N 28°36' W 015°52'5 9.5
2017-Apr-17 04:31N 28°38' W 015°47'5 9.4
2017-Apr-17 04:00N 28°39' W 015°42'5 9.1
2017-Apr-17 03:30N 28°39' W 015°37'5 9.2
2017-Apr-17 03:01N 28°40' W 015°31'5 9.4
2017-Apr-17 02:30N 28°40' W 015°26'5 9.3
2017-Apr-17 02:00N 28°41' W 015°21'5 9.1
2017-Apr-17 01:30N 28°41' W 015°16'5 9.4
2017-Apr-17 01:00N 28°42' W 015°10'5 9.3
2017-Apr-17 00:30N 28°43' W 015°05'5 9.3
2017-Apr-17 00:01N 28°44' W 014°60'5 9.2
2017-Apr-16 23:30N 28°44' W 014°55'5 9.0
2017-Apr-16 23:00N 28°45' W 014°50'5 9.0
2017-Apr-16 22:30N 28°46' W 014°45'4 8.0
2017-Apr-16 22:00N 28°44' W 014°41'5 9.1
2017-Apr-16 21:30N 28°44' W 014°35'5 9.2
2017-Apr-16 21:00N 28°45' W 014°30'5 9.2
2017-Apr-16 20:30N 28°46' W 014°25'5 9.2
2017-Apr-16 20:00N 28°46' W 014°20'4 9.2
2017-Apr-16 19:31N 28°47' W 014°15'510.0
2017-Apr-16 19:01N 28°48' W 014°09'510.1
2017-Apr-16 18:28N 28°48' W 014°03'510.0
2017-Apr-16 18:00N 28°48' W 013°58'510.7
2017-Apr-16 17:30N 28°48' W 013°51'610.7
2017-Apr-16 16:59N 28°49' W 013°45'910.4
2017-Apr-16 16:09N 28°51' W 013°36'1 9.9
2017-Apr-16 16:01N 28°52' W 013°34'5 9.9
2017-Apr-16 15:31N 28°57' W 013°32'1 2.4
2017-Apr-16 15:01N 28°58' W 013°32'0 0.0
2017-Apr-16 14:31N 28°58' W 013°32'0 0.0
2017-Apr-15 13:28N 28°58' W 013°32'2 3.2
2017-Apr-15 13:00N 28°56' W 013°32'4 8.2
2017-Apr-15 12:30N 28°54' W 013°36'4 8.9
2017-Apr-15 12:00N 28°52' W 013°40'4 8.9
2017-Apr-15 11:30N 28°50' W 013°45'4 8.8
2017-Apr-15 11:00N 28°48' W 013°50'4 8.7
2017-Apr-15 10:30N 28°48' W 013°54'4 8.5
2017-Apr-15 10:00N 28°47' W 013°59'4 8.3
2017-Apr-15 09:30N 28°47' W 014°04'4 8.6
2017-Apr-15 09:00N 28°47' W 014°09'4 8.7
2017-Apr-15 08:30N 28°46' W 014°14'4 8.6
2017-Apr-15 08:00N 28°46' W 014°19'4 8.4
2017-Apr-15 07:30N 28°45' W 014°24'4 8.3
2017-Apr-15 07:00N 28°45' W 014°28'4 8.7
2017-Apr-15 06:30N 28°45' W 014°33'4 8.8
2017-Apr-15 06:00N 28°44' W 014°38'4 8.8
2017-Apr-15 05:30N 28°43' W 014°43'4 8.7
2017-Apr-15 05:00N 28°43' W 014°48'4 8.9
2017-Apr-15 04:30N 28°43' W 014°53'5 9.2
2017-Apr-15 04:00N 28°42' W 014°58'5 9.2
2017-Apr-15 03:30N 28°42' W 015°03'5 9.1
2017-Apr-15 03:00N 28°42' W 015°09'5 9.0
2017-Apr-15 02:30N 28°42' W 015°14'5 9.1
2017-Apr-15 02:00N 28°41' W 015°19'5 9.1
2017-Apr-15 01:30N 28°41' W 015°24'5 9.1
2017-Apr-15 01:00N 28°41' W 015°29'4 9.0
2017-Apr-15 00:30N 28°40' W 015°34'5 9.1
2017-Apr-14 23:59N 28°40' W 015°40'4 9.2
2017-Apr-14 23:30N 28°39' W 015°45'5 9.0
2017-Apr-14 23:00N 28°38' W 015°50'4 9.0
2017-Apr-14 22:30N 28°36' W 015°54'5 9.1
2017-Apr-14 22:00N 28°34' W 015°59'5 9.1
2017-Apr-14 21:30N 28°32' W 016°04'5 9.1
2017-Apr-14 20:59N 28°29' W 016°08'4 8.5
2017-Apr-14 20:29N 28°28' W 016°13'1 0.1
2017-Apr-14 00:58N 28°29' W 016°13'  

Dump ship's entire track history